Dragon — SVA2492 — position and weather

sailwx.info

Track history (hours):
 
Tides and Currents Weather Stations Pressure Air Temp Water Temp Dewpoint Dewpoint Depression Visibility Wind Speed Wind Dir Waves Ship Positions

Dragon

Last reported at 2018-Jun-18 06:35 UTC. Time now 2018-Jun-18 11:11 UTC.
Position N 36°59' E 025°19'.

Length 37 m; draft 2.7 m.

Type: Passenger vessel. MMSI: 240967000.

Date/timePositionNaut miles runAvg speedWind from/ knotsBaromVisibWave heightAir tempDewpointWater temp
2018-Jun-18 06:35N 36°59' E 025°19'221.6
2018-Jun-18 06:30N 37°01' E 025°19'1121.7
2018-Jun-18 06:00N 37°12' E 025°18'1121.3
2018-Jun-18 05:30N 37°22' E 025°17'5 5.7
2018-Jun-18 04:38N 37°27' E 025°20'0 0.0
2018-Jun-17 17:30N 37°27' E 025°20'0 0.0
2018-Jun-17 16:40N 37°27' E 025°20'0 0.0
2018-Jun-17 16:13N 37°27' E 025°20'0 0.0
2018-Jun-17 14:06N 37°27' E 025°20'1 6.4
2018-Jun-17 13:55N 37°27' E 025°18'3 7.9
2018-Jun-17 13:30N 37°24' E 025°19'1 2.9
2018-Jun-17 13:00N 37°25' E 025°20'0 0.1
2018-Jun-17 12:30N 37°25' E 025°20'0 0.0
2018-Jun-17 12:00N 37°25' E 025°20'0 0.2
2018-Jun-17 11:31N 37°25' E 025°20'1 1.8
2018-Jun-17 11:00N 37°25' E 025°19'0 0.0
2018-Jun-17 10:30N 37°25' E 025°19'0 0.0
2018-Jun-17 10:00N 37°25' E 025°19'0 0.0
2018-Jun-17 09:30N 37°25' E 025°19'0 0.0
2018-Jun-17 09:00N 37°25' E 025°19'0 0.0
2018-Jun-17 08:30N 37°25' E 025°19'0 0.0
2018-Jun-17 08:00N 37°25' E 025°19'0 0.0
2018-Jun-17 07:30N 37°25' E 025°19'0 0.0
2018-Jun-17 07:00N 37°25' E 025°19'2 5.1
2018-Jun-17 06:31N 37°23' E 025°17'714.8
2018-Jun-17 06:00N 37°16' E 025°15'715.0
2018-Jun-17 05:30N 37°08' E 025°14'1 0.1
2018-Jun-16 16:52N 37°08' E 025°14'0 0.0
2018-Jun-16 16:30N 37°08' E 025°14'0 0.0
2018-Jun-16 15:59N 37°08' E 025°14'0 0.2
2018-Jun-16 15:08N 37°08' E 025°14'1 6.0
2018-Jun-16 15:00N 37°08' E 025°14'0 0.1
2018-Jun-16 11:33N 37°09' E 025°14'0 0.1
2018-Jun-16 11:28N 37°09' E 025°14'0 0.0
2018-Jun-16 10:59N 37°09' E 025°14'0 0.0
2018-Jun-16 10:29N 37°09' E 025°14'0 0.0
2018-Jun-16 08:50N 37°09' E 025°14'0 0.2
2018-Jun-16 08:31N 37°09' E 025°14'814.7
2018-Jun-16 07:59N 37°10' E 025°04'1021.8
2018-Jun-16 07:31N 37°11' E 024°51'64 3.1
2018-Jun-15 10:57N 37°26' E 023°33'919.8
2018-Jun-15 10:31N 37°34' E 023°35'1020.0
2018-Jun-15 10:00N 37°44' E 023°39'1019.0
2018-Jun-15 09:30N 37°53' E 023°42'2 3.4
2018-Jun-15 09:00N 37°55' E 023°42'0 0.0
2018-Jun-15 08:30N 37°55' E 023°42'0 0.0
2018-Jun-15 08:00N 37°55' E 023°42'0 0.0
2018-Jun-15 07:30N 37°55' E 023°42'0 0.0
2018-Jun-15 07:00N 37°55' E 023°42'0 0.0
2018-Jun-15 06:30N 37°55' E 023°42'0 0.0
2018-Jun-15 06:00N 37°55' E 023°42'0 0.0
2018-Jun-15 05:30N 37°55' E 023°42'0 0.0
2018-Jun-15 05:00N 37°55' E 023°42'0 0.0
2018-Jun-15 04:30N 37°55' E 023°42'0 0.0
2018-Jun-15 04:00N 37°55' E 023°42'0 0.0
2018-Jun-15 03:30N 37°55' E 023°42'0 0.0
2018-Jun-15 03:00N 37°55' E 023°42'0 0.0
2018-Jun-15 02:30N 37°55' E 023°42'0 0.0
2018-Jun-15 02:00N 37°55' E 023°42'0 0.0
2018-Jun-15 01:30N 37°55' E 023°42'0 0.0
2018-Jun-15 01:00N 37°55' E 023°42'0 0.0
2018-Jun-15 00:30N 37°55' E 023°42'0 0.0
2018-Jun-14 23:59N 37°55' E 023°42'0 0.0
2018-Jun-14 23:30N 37°55' E 023°42'0 0.0
2018-Jun-14 23:00N 37°55' E 023°42'0 0.0
2018-Jun-14 22:30N 37°55' E 023°42'0 0.0
2018-Jun-14 22:00N 37°55' E 023°42'0 0.0
2018-Jun-14 21:30N 37°55' E 023°42'0 0.0
2018-Jun-14 21:00N 37°55' E 023°42'0 0.0
2018-Jun-14 20:30N 37°55' E 023°42'0 0.0
2018-Jun-14 20:00N 37°55' E 023°42'0 0.0
2018-Jun-14 19:30N 37°55' E 023°42'0 0.0
2018-Jun-14 19:00N 37°55' E 023°42'0 0.0
2018-Jun-14 18:30N 37°55' E 023°42'0 0.0
2018-Jun-14 18:00N 37°55' E 023°42'0 0.0
2018-Jun-14 17:29N 37°55' E 023°42'0 0.0
2018-Jun-14 17:00N 37°55' E 023°42'0 0.0
2018-Jun-14 16:30N 37°55' E 023°42'0 0.0
2018-Jun-14 16:00N 37°55' E 023°42'0 0.0
2018-Jun-14 15:30N 37°55' E 023°42'0 0.0
2018-Jun-14 15:00N 37°55' E 023°42'0 0.0
2018-Jun-14 14:30N 37°55' E 023°42'  
Track history (hours):
 
Tides and Currents Weather Stations Pressure Air Temp Water Temp Dewpoint Dewpoint Depression Visibility Wind Speed Wind Dir Waves Ship Positions

Dragon

Last reported at 2018-Jun-18 06:35 UTC. Time now 2018-Jun-18 11:11 UTC.
Position N 36°59' E 025°19'.

Length 37 m; draft 2.7 m.

Type: Passenger vessel. MMSI: 240967000.

Date/timePositionNaut miles runAvg speedWind from/ knotsBaromVisibWave heightAir tempDewpointWater temp
2018-Jun-18 06:35N 36°59' E 025°19'221.6
2018-Jun-18 06:30N 37°01' E 025°19'1121.7
2018-Jun-18 06:00N 37°12' E 025°18'1121.3
2018-Jun-18 05:30N 37°22' E 025°17'5 5.7
2018-Jun-18 04:38N 37°27' E 025°20'0 0.0
2018-Jun-17 17:30N 37°27' E 025°20'0 0.0
2018-Jun-17 16:40N 37°27' E 025°20'0 0.0
2018-Jun-17 16:13N 37°27' E 025°20'0 0.0
2018-Jun-17 14:06N 37°27' E 025°20'1 6.4
2018-Jun-17 13:55N 37°27' E 025°18'3 7.9
2018-Jun-17 13:30N 37°24' E 025°19'1 2.9
2018-Jun-17 13:00N 37°25' E 025°20'0 0.1
2018-Jun-17 12:30N 37°25' E 025°20'0 0.0
2018-Jun-17 12:00N 37°25' E 025°20'0 0.2
2018-Jun-17 11:31N 37°25' E 025°20'1 1.8
2018-Jun-17 11:00N 37°25' E 025°19'0 0.0
2018-Jun-17 10:30N 37°25' E 025°19'0 0.0
2018-Jun-17 10:00N 37°25' E 025°19'0 0.0
2018-Jun-17 09:30N 37°25' E 025°19'0 0.0
2018-Jun-17 09:00N 37°25' E 025°19'0 0.0
2018-Jun-17 08:30N 37°25' E 025°19'0 0.0
2018-Jun-17 08:00N 37°25' E 025°19'0 0.0
2018-Jun-17 07:30N 37°25' E 025°19'0 0.0
2018-Jun-17 07:00N 37°25' E 025°19'2 5.1
2018-Jun-17 06:31N 37°23' E 025°17'714.8
2018-Jun-17 06:00N 37°16' E 025°15'715.0
2018-Jun-17 05:30N 37°08' E 025°14'1 0.1
2018-Jun-16 16:52N 37°08' E 025°14'0 0.0
2018-Jun-16 16:30N 37°08' E 025°14'0 0.0
2018-Jun-16 15:59N 37°08' E 025°14'0 0.2
2018-Jun-16 15:08N 37°08' E 025°14'1 6.0
2018-Jun-16 15:00N 37°08' E 025°14'0 0.1
2018-Jun-16 11:33N 37°09' E 025°14'0 0.1
2018-Jun-16 11:28N 37°09' E 025°14'0 0.0
2018-Jun-16 10:59N 37°09' E 025°14'0 0.0
2018-Jun-16 10:29N 37°09' E 025°14'0 0.0
2018-Jun-16 08:50N 37°09' E 025°14'0 0.2
2018-Jun-16 08:31N 37°09' E 025°14'814.7
2018-Jun-16 07:59N 37°10' E 025°04'1021.8
2018-Jun-16 07:31N 37°11' E 024°51'64 3.1
2018-Jun-15 10:57N 37°26' E 023°33'919.8
2018-Jun-15 10:31N 37°34' E 023°35'1020.0
2018-Jun-15 10:00N 37°44' E 023°39'1019.0
2018-Jun-15 09:30N 37°53' E 023°42'2 3.4
2018-Jun-15 09:00N 37°55' E 023°42'0 0.0
2018-Jun-15 08:30N 37°55' E 023°42'0 0.0
2018-Jun-15 08:00N 37°55' E 023°42'0 0.0
2018-Jun-15 07:30N 37°55' E 023°42'0 0.0
2018-Jun-15 07:00N 37°55' E 023°42'0 0.0
2018-Jun-15 06:30N 37°55' E 023°42'0 0.0
2018-Jun-15 06:00N 37°55' E 023°42'0 0.0
2018-Jun-15 05:30N 37°55' E 023°42'0 0.0
2018-Jun-15 05:00N 37°55' E 023°42'0 0.0
2018-Jun-15 04:30N 37°55' E 023°42'0 0.0
2018-Jun-15 04:00N 37°55' E 023°42'0 0.0
2018-Jun-15 03:30N 37°55' E 023°42'0 0.0
2018-Jun-15 03:00N 37°55' E 023°42'0 0.0
2018-Jun-15 02:30N 37°55' E 023°42'0 0.0
2018-Jun-15 02:00N 37°55' E 023°42'0 0.0
2018-Jun-15 01:30N 37°55' E 023°42'0 0.0
2018-Jun-15 01:00N 37°55' E 023°42'0 0.0
2018-Jun-15 00:30N 37°55' E 023°42'0 0.0
2018-Jun-14 23:59N 37°55' E 023°42'0 0.0
2018-Jun-14 23:30N 37°55' E 023°42'0 0.0
2018-Jun-14 23:00N 37°55' E 023°42'0 0.0
2018-Jun-14 22:30N 37°55' E 023°42'0 0.0
2018-Jun-14 22:00N 37°55' E 023°42'0 0.0
2018-Jun-14 21:30N 37°55' E 023°42'0 0.0
2018-Jun-14 21:00N 37°55' E 023°42'0 0.0
2018-Jun-14 20:30N 37°55' E 023°42'0 0.0
2018-Jun-14 20:00N 37°55' E 023°42'0 0.0
2018-Jun-14 19:30N 37°55' E 023°42'0 0.0
2018-Jun-14 19:00N 37°55' E 023°42'0 0.0
2018-Jun-14 18:30N 37°55' E 023°42'0 0.0
2018-Jun-14 18:00N 37°55' E 023°42'0 0.0
2018-Jun-14 17:29N 37°55' E 023°42'0 0.0
2018-Jun-14 17:00N 37°55' E 023°42'0 0.0
2018-Jun-14 16:30N 37°55' E 023°42'0 0.0
2018-Jun-14 16:00N 37°55' E 023°42'0 0.0
2018-Jun-14 15:30N 37°55' E 023°42'0 0.0
2018-Jun-14 15:00N 37°55' E 023°42'0 0.0
2018-Jun-14 14:30N 37°55' E 023°42'  

Dump ship's entire track history